Time;durP1;ratioP1;P1;durP2;ratioP2;P2;SDS_P1;SDS_P2;PMS_P1;PMS_P2;Temp;Humidity;BMP_temperature;BMP_pressure;BME280_temperature;BME280_humidity;BME280_pressure;Samples;Min_cycle;Max_cycle;Signal;HPM_P1;HPM_P2
2022/05/12 00:00:24;;;;;;;5.55;4.30;;;;;;;19.93;48.23;100110.19;7394860;19;20015;-65
2022/05/12 00:02:53;;;;;;;4.07;3.78;;;;;;;19.89;48.56;100105.19;7394509;19;20042;-65
2022/05/12 00:05:25;;;;;;;5.35;4.65;;;;;;;19.83;48.72;100101.16;7393547;19;20044;-64
2022/05/12 00:07:53;;;;;;;7.97;4.47;;;;;;;19.78;48.85;100100.63;7396050;19;20040;-64
2022/05/12 00:10:25;;;;;;;6.35;4.57;;;;;;;19.74;48.99;100096.44;7394323;19;20035;-65
2022/05/12 00:12:55;;;;;;;6.88;4.00;;;;;;;19.70;49.25;100098.47;7394074;19;20015;-65
2022/05/12 00:15:27;;;;;;;5.40;4.28;;;;;;;19.64;49.17;100102.44;7393865;19;20022;-65
2022/05/12 00:17:56;;;;;;;5.60;4.38;;;;;;;19.62;48.87;100101.66;7394149;19;20354;-65
2022/05/12 00:20:27;;;;;;;5.90;4.70;;;;;;;19.60;49.72;100100.06;7394811;19;20025;-65
2022/05/12 00:23:08;;;;;;;4.93;4.40;;;;;;;19.54;49.79;100106.69;7394026;19;20036;-65
2022/05/12 00:25:37;;;;;;;5.55;4.30;;;;;;;19.51;49.56;100109.56;7393500;19;20022;-65
2022/05/12 00:28:05;;;;;;;5.80;4.65;;;;;;;19.45;49.68;100112.63;7395061;19;20041;-65
2022/05/12 00:30:34;;;;;;;9.48;4.15;;;;;;;19.40;49.83;100114.75;7393297;19;20031;-65
2022/05/12 00:33:02;;;;;;;6.82;4.40;;;;;;;19.33;50.29;100119.66;7395036;19;20022;-64
2022/05/12 00:35:33;;;;;;;4.75;3.97;;;;;;;19.28;50.59;100119.97;7399486;19;20409;-64
2022/05/12 00:38:02;;;;;;;6.75;3.47;;;;;;;19.23;50.68;100127.41;7402953;19;20032;-65
2022/05/12 00:40:30;;;;;;;4.85;4.35;;;;;;;19.20;50.35;100124.97;7399372;19;20027;-65
2022/05/12 00:43:00;;;;;;;6.60;4.60;;;;;;;19.13;50.66;100111.25;7399438;19;20015;-64
2022/05/12 00:45:31;;;;;;;10.25;5.38;;;;;;;19.09;50.84;100114.22;7399580;19;20015;-64
2022/05/12 00:48:00;;;;;;;8.50;4.95;;;;;;;19.02;51.06;100108.47;7402568;19;20019;-64
2022/05/12 00:50:35;;;;;;;5.35;4.40;;;;;;;18.98;51.48;100115.78;7402151;19;20018;-64
2022/05/12 00:53:07;;;;;;;4.97;4.22;;;;;;;18.94;51.63;100121.41;7398918;19;20480;-64
2022/05/12 00:55:39;;;;;;;6.53;4.57;;;;;;;18.91;51.31;100116.31;7399193;19;20022;-64
2022/05/12 00:58:10;;;;;;;5.65;4.32;;;;;;;18.84;51.97;100122.00;7398781;19;20422;-64
2022/05/12 01:00:39;;;;;;;5.05;4.40;;;;;;;18.79;51.76;100108.16;7400860;19;20039;-64
2022/05/12 01:03:12;;;;;;;4.97;4.38;;;;;;;18.72;52.31;100105.03;7401461;19;20018;-63
2022/05/12 01:05:43;;;;;;;5.10;4.60;;;;;;;18.67;52.35;100107.16;7398881;19;20048;-64
2022/05/12 01:08:11;;;;;;;9.45;4.40;;;;;;;18.61;52.54;100104.88;7398444;19;20484;-64
2022/05/12 01:10:41;;;;;;;6.05;5.15;;;;;;;18.56;52.38;100110.53;7400977;19;20498;-64
2022/05/12 01:13:09;;;;;;;5.00;4.50;;;;;;;18.52;52.83;100116.13;7401979;19;20014;-64
2022/05/12 01:15:38;;;;;;;7.05;4.82;;;;;;;18.48;52.94;100119.94;7398453;19;20379;-64
2022/05/12 01:18:10;;;;;;;5.05;4.55;;;;;;;18.42;52.98;100109.72;7401257;19;20020;-64
2022/05/12 01:20:39;;;;;;;5.85;5.28;;;;;;;18.36;53.61;100122.44;7399529;19;20583;-65
2022/05/12 01:23:33;;;;;;;6.30;4.43;;;;;;;18.30;53.89;100124.63;7401071;19;20039;-64
2022/05/12 01:26:04;;;;;;;5.45;4.63;;;;;;;18.23;53.58;100127.66;7401405;19;20014;-65
2022/05/12 01:28:32;;;;;;;8.82;5.72;;;;;;;18.18;53.96;100127.09;7401257;19;20022;-64
2022/05/12 01:31:01;;;;;;;8.95;5.35;;;;;;;18.10;54.14;100134.72;7397616;19;20385;-65
2022/05/12 01:33:30;;;;;;;6.47;5.55;;;;;;;18.02;54.21;100132.53;7400452;19;20027;-64
2022/05/12 01:35:58;;;;;;;7.35;5.53;;;;;;;17.99;54.85;100129.22;7400204;19;20402;-65
2022/05/12 01:38:27;;;;;;;9.10;5.85;;;;;;;17.94;55.09;100133.97;7398054;19;20026;-65
2022/05/12 01:40:58;;;;;;;9.15;5.50;;;;;;;17.90;54.94;100141.22;7397422;19;20502;-65
2022/05/12 01:43:26;;;;;;;6.80;5.22;;;;;;;17.86;55.19;100145.88;7400590;19;20039;-63
2022/05/12 01:45:54;;;;;;;5.88;5.22;;;;;;;17.85;55.27;100161.91;7397087;19;20015;-64
2022/05/12 01:48:35;;;;;;;6.20;5.60;;;;;;;17.83;55.30;100166.44;7397690;19;20006;-64
2022/05/12 01:51:03;;;;;;;5.95;5.32;;;;;;;17.82;55.80;100185.94;7400560;19;20022;-64
2022/05/12 01:53:32;;;;;;;6.43;4.28;;;;;;;17.80;55.83;100179.91;7399425;19;20468;-64
2022/05/12 01:56:03;;;;;;;5.65;5.15;;;;;;;17.77;56.08;100174.75;7400153;19;20019;-64
2022/05/12 01:58:31;;;;;;;6.03;5.10;;;;;;;17.75;56.16;100166.91;7399646;19;20010;-65
2022/05/12 02:00:59;;;;;;;7.07;5.53;;;;;;;17.73;56.02;100167.00;7398172;19;20425;-65
2022/05/12 02:03:28;;;;;;;14.68;5.95;;;;;;;17.69;56.15;100173.44;7396779;19;20028;-63
2022/05/12 02:05:56;;;;;;;5.00;4.60;;;;;;;17.66;56.33;100165.66;7397470;19;20363;-64
2022/05/12 02:08:25;;;;;;;5.88;5.32;;;;;;;17.63;56.21;100203.00;7397233;19;20476;-64
2022/05/12 02:10:54;;;;;;;7.18;5.60;;;;;;;17.58;56.49;100197.97;7399480;19;20098;-64
2022/05/12 02:13:27;;;;;;;13.32;6.05;;;;;;;17.57;56.66;100217.47;7396842;19;20026;-65
2022/05/12 02:15:56;;;;;;;7.18;5.63;;;;;;;17.53;56.61;100221.25;7398211;19;20015;-65
2022/05/12 02:18:25;;;;;;;6.90;5.95;;;;;;;17.49;57.01;100237.44;7400438;19;20028;-65
2022/05/12 02:20:54;;;;;;;7.00;6.30;;;;;;;17.42;57.27;100244.91;7398461;19;20376;-64
2022/05/12 02:23:23;;;;;;;9.48;6.18;;;;;;;17.39;57.31;100261.84;7396659;19;20014;-65
2022/05/12 02:25:51;;;;;;;7.20;5.90;;;;;;;17.38;57.58;100268.09;7398457;19;20379;-64
2022/05/12 02:28:20;;;;;;;11.30;5.95;;;;;;;17.35;58.45;100270.03;7398867;19;20010;-64
2022/05/12 02:30:50;;;;;;;6.93;5.47;;;;;;;17.31;58.50;100281.78;7396544;19;20014;-64
2022/05/12 02:33:18;;;;;;;6.10;4.90;;;;;;;17.30;59.14;100288.03;7398253;19;20522;-64
2022/05/12 02:35:47;;;;;;;9.25;5.22;;;;;;;17.25;60.02;100299.75;7397750;19;20018;-64
2022/05/12 02:38:15;;;;;;;14.20;5.28;;;;;;;17.25;59.49;100298.91;7395977;19;20035;-64
2022/05/12 02:40:43;;;;;;;7.18;5.03;;;;;;;17.24;59.89;100307.78;7397783;19;20022;-65
2022/05/12 02:45:58;;;;;;;5.22;3.70;;;;;;;17.18;60.78;100316.94;7395766;19;20014;-64
2022/05/12 02:48:29;;;;;;;9.77;4.25;;;;;;;17.17;60.55;100307.28;7396761;19;20027;-64
2022/05/12 02:50:57;;;;;;;6.97;3.60;;;;;;;17.13;61.19;100307.53;7398238;19;20022;-65
2022/05/12 02:53:26;;;;;;;6.20;3.40;;;;;;;17.12;60.50;100308.47;7395620;19;20526;-63
2022/05/12 02:55:55;;;;;;;4.63;2.95;;;;;;;17.08;60.98;100313.94;7397244;19;20104;-64
2022/05/12 02:58:23;;;;;;;8.80;3.72;;;;;;;17.09;60.54;100331.56;7396579;19;20018;-64
2022/05/12 03:00:52;;;;;;;8.00;4.13;;;;;;;17.06;60.86;100326.44;7395722;19;20022;-65
2022/05/12 03:03:22;;;;;;;7.80;3.15;;;;;;;17.08;61.08;100353.69;7397502;19;20018;-65
2022/05/12 03:05:52;;;;;;;5.78;2.90;;;;;;;17.06;61.52;100371.50;7395350;19;20489;-64
2022/05/12 03:08:21;;;;;;;10.05;3.95;;;;;;;16.94;66.36;100393.34;7397475;19;20022;-64
2022/05/12 03:10:51;;;;;;;8.10;3.83;;;;;;;16.73;66.14;100396.19;7397465;19;20018;-64
2022/05/12 03:13:20;;;;;;;5.65;3.72;;;;;;;16.34;69.43;100370.88;7397475;19;20018;-64
2022/05/12 03:15:48;;;;;;;9.18;3.88;;;;;;;16.01;70.77;100370.78;7397333;19;20031;-64
2022/05/12 03:18:16;;;;;;;9.65;5.18;;;;;;;15.70;75.03;100361.72;7395391;19;20014;-64
2022/05/12 03:20:47;;;;;;;10.20;4.60;;;;;;;15.44;74.11;100375.28;7395258;19;20019;-64
2022/05/12 03:23:17;;;;;;;9.77;5.63;;;;;;;15.24;75.82;100367.41;7397360;19;20032;-64
2022/05/12 03:25:45;;;;;;;8.40;4.93;;;;;;;15.08;77.36;100376.06;7395095;19;20038;-64
2022/05/12 03:28:14;;;;;;;15.93;9.93;;;;;;;14.95;77.43;100385.47;7394997;19;20022;-64
2022/05/12 03:30:43;;;;;;;8.30;5.28;;;;;;;14.86;78.18;100400.00;7396240;19;20388;-64
2022/05/12 03:33:12;;;;;;;11.80;5.45;;;;;;;14.78;78.45;100387.09;7396342;19;20022;-64
2022/05/12 03:35:40;;;;;;;9.05;5.18;;;;;;;14.73;79.37;100401.44;7394391;19;20028;-64
2022/05/12 03:38:10;;;;;;;8.93;5.57;;;;;;;14.68;80.34;100412.22;7393553;19;20382;-64
2022/05/12 03:40:39;;;;;;;8.27;5.18;;;;;;;14.63;79.96;100411.53;7394389;19;20019;-65
2022/05/12 03:43:07;;;;;;;9.30;5.18;;;;;;;14.61;81.23;100410.75;7393931;19;20022;-64
2022/05/12 03:45:33;;;;;;;8.75;5.82;;;;;;;14.57;80.64;100399.47;7393630;19;20031;-64
2022/05/12 03:48:02;;;;;;;9.00;4.97;;;;;;;14.56;81.42;100410.06;7393527;19;20377;-64
2022/05/12 03:50:31;;;;;;;10.05;5.43;;;;;;;14.54;81.14;100406.66;7394181;19;20031;-64
2022/05/12 03:52:59;;;;;;;6.65;4.72;;;;;;;14.56;82.16;100418.88;7395338;19;20034;-64
2022/05/12 03:55:30;;;;;;;8.15;4.93;;;;;;;14.57;81.97;100415.31;7393960;19;20498;-64
2022/05/12 03:57:59;;;;;;;10.90;4.80;;;;;;;14.57;83.24;100414.44;7396114;19;20035;-65
2022/05/12 04:00:31;;;;;;;9.75;4.50;;;;;;;14.57;81.70;100430.25;7393276;19;20371;-64
2022/05/12 04:02:59;;;;;;;12.52;4.88;;;;;;;14.60;80.77;100435.44;7393810;19;20018;-65
2022/05/12 04:05:31;;;;;;;6.85;3.97;;;;;;;14.62;80.87;100439.72;7393256;19;20018;-64
2022/05/12 04:08:00;;;;;;;6.00;3.45;;;;;;;14.64;80.38;100435.25;7395212;19;20025;-65
2022/05/12 04:10:32;;;;;;;6.97;4.28;;;;;;;14.66;80.49;100436.03;7393048;19;20381;-65
2022/05/12 04:13:01;;;;;;;5.53;4.32;;;;;;;14.69;80.10;100444.78;7395606;19;20014;-65
2022/05/12 04:15:30;;;;;;;5.18;3.90;;;;;;;14.72;80.28;100461.34;7393455;19;20422;-64
2022/05/12 04:18:02;;;;;;;8.40;4.03;;;;;;;14.71;79.75;100443.78;7395154;19;20133;-65
2022/05/12 04:20:32;;;;;;;9.45;3.50;;;;;;;14.71;79.26;100451.69;7393171;19;20018;-65
2022/05/12 04:23:01;;;;;;;3.85;3.22;;;;;;;14.72;79.00;100453.41;7393154;19;20019;-65
2022/05/12 04:25:31;;;;;;;6.32;3.03;;;;;;;14.73;78.41;100463.03;7392774;19;20029;-65
2022/05/12 04:27:59;;;;;;;6.13;3.00;;;;;;;14.74;78.12;100466.53;7393162;19;20018;-64
2022/05/12 04:30:29;;;;;;;6.07;3.28;;;;;;;14.74;77.70;100483.25;7392539;19;20022;-65
2022/05/12 04:35:09;;;;;;;4.60;2.80;;;;;;;14.73;76.65;100502.63;7392161;19;20035;-64
2022/05/12 04:35:43;;;;;;;5.35;2.67;;;;;;;14.74;77.09;100487.66;7393333;19;20357;-64
2022/05/12 04:38:11;;;;;;;5.10;2.80;;;;;;;14.74;76.61;100490.31;7393863;19;20032;-64
2022/05/12 04:40:42;;;;;;;7.85;2.85;;;;;;;14.71;75.94;100486.03;7392990;19;20014;-64
2022/05/12 04:43:11;;;;;;;7.00;3.45;;;;;;;14.72;75.24;100500.94;7395255;19;20015;-64
2022/05/12 04:45:40;;;;;;;4.30;2.78;;;;;;;14.74;75.46;100509.66;7392527;19;20023;-65
2022/05/12 04:48:09;;;;;;;4.72;2.60;;;;;;;14.76;74.71;100510.44;7394471;19;20085;-65
2022/05/12 04:50:40;;;;;;;6.70;2.33;;;;;;;14.78;74.84;100508.56;7392218;19;20019;-64
2022/05/12 04:53:09;;;;;;;4.82;2.75;;;;;;;14.80;74.44;100535.78;7393812;19;20019;-64
2022/05/12 04:55:38;;;;;;;4.22;2.40;;;;;;;14.83;73.79;100538.28;7390845;19;20018;-64
2022/05/12 04:58:09;;;;;;;9.25;3.42;;;;;;;14.87;73.70;100538.16;7392571;19;20035;-64
2022/05/12 05:00:40;;;;;;;5.05;2.67;;;;;;;14.87;73.40;100546.94;7390951;19;20023;-64
2022/05/12 05:03:09;;;;;;;6.07;2.72;;;;;;;14.86;72.01;100554.94;7390994;19;20107;-64
2022/05/12 05:05:38;;;;;;;4.57;2.63;;;;;;;14.88;72.67;100563.66;7388474;19;20028;-64
2022/05/12 05:08:08;;;;;;;7.55;2.85;;;;;;;14.85;72.16;100566.41;7391813;19;20041;-63
2022/05/12 05:10:36;;;;;;;5.30;2.40;;;;;;;14.85;72.31;100569.06;7393317;19;20025;-65
2022/05/12 05:13:05;;;;;;;6.72;2.70;;;;;;;14.85;71.95;100583.16;7391143;19;20018;-64
2022/05/12 05:15:37;;;;;;;5.97;2.33;;;;;;;14.82;69.99;100585.91;7390613;19;20074;-64
2022/05/12 05:18:06;;;;;;;7.15;2.40;;;;;;;14.86;71.06;100605.13;7392415;19;20094;-69
2022/05/12 05:20:34;;;;;;;6.38;2.60;;;;;;;14.86;70.09;100611.28;7395855;19;20038;-65
2022/05/12 05:23:02;;;;;;;4.85;2.58;;;;;;;14.92;70.69;100594.31;7396846;19;20018;-66
2022/05/12 05:25:31;;;;;;;3.58;2.08;;;;;;;14.92;68.14;100603.06;7396507;19;20528;-64
2022/05/12 05:27:59;;;;;;;3.42;2.13;;;;;;;14.94;68.86;100592.47;7397224;19;20022;-65
2022/05/12 05:30:28;;;;;;;5.65;2.00;;;;;;;15.01;66.64;100635.31;7398036;19;20473;-64
2022/05/12 05:32:59;;;;;;;4.70;1.90;;;;;;;15.02;65.19;100677.53;7400056;19;20019;-63
2022/05/12 05:35:28;;;;;;;2.60;1.50;;;;;;;15.03;64.71;100649.34;7397179;19;20019;-68
2022/05/12 05:37:57;;;;;;;6.60;1.58;;;;;;;15.04;64.77;100620.19;7399326;19;20035;-65
2022/05/12 05:40:28;;;;;;;4.93;1.27;;;;;;;15.05;64.83;100665.97;7396364;19;20025;-64
2022/05/12 05:42:57;;;;;;;6.38;1.73;;;;;;;15.05;63.86;100648.34;7396899;19;20102;-65
2022/05/12 05:45:26;;;;;;;4.28;1.98;;;;;;;15.04;63.68;100678.34;7396723;19;20035;-65
2022/05/12 05:47:58;;;;;;;4.13;1.50;;;;;;;15.05;64.47;100671.25;7399807;19;20018;-64
2022/05/12 05:50:31;;;;;;;2.97;1.13;;;;;;;15.03;63.67;100684.53;7397752;19;20018;-64
2022/05/12 05:55:40;;;;;;;6.13;1.50;;;;;;;15.03;63.38;100726.81;7397114;19;20549;-65
2022/05/12 05:58:09;;;;;;;2.75;1.20;;;;;;;14.99;59.26;100712.00;7399325;19;20019;-65
2022/05/12 06:00:37;;;;;;;6.43;1.30;;;;;;;14.95;58.71;100726.25;7396392;19;20041;-65
2022/05/12 06:03:07;;;;;;;10.80;1.33;;;;;;;14.86;57.12;100705.50;7396936;19;20006;-64
2022/05/12 06:05:38;;;;;;;9.38;0.88;;;;;;;14.81;58.00;100746.16;7395690;19;20013;-65
2022/05/12 06:08:10;;;;;;;8.80;0.90;;;;;;;14.77;58.25;100765.69;7396783;19;20035;-65
2022/05/12 06:10:39;;;;;;;3.78;0.95;;;;;;;14.75;57.68;100782.53;7396519;19;20018;-65
2022/05/12 06:13:08;;;;;;;7.85;1.63;;;;;;;14.74;58.21;100759.66;7398780;19;20011;-65
2022/05/12 06:15:37;;;;;;;6.32;0.80;;;;;;;14.73;57.74;100789.63;7396020;19;20029;-65
2022/05/12 06:18:08;;;;;;;3.10;0.85;;;;;;;14.66;56.82;100821.53;7396342;19;20031;-65
2022/05/12 06:20:40;;;;;;;2.03;0.80;;;;;;;14.62;56.78;100784.72;7397230;19;20018;-65
2022/05/12 06:23:08;;;;;;;3.47;0.68;;;;;;;14.60;57.51;100807.69;7396152;19;20039;-65
2022/05/12 06:25:37;;;;;;;4.90;1.00;;;;;;;14.54;56.15;100823.75;7395968;19;20449;-65
2022/05/12 06:28:05;;;;;;;3.50;0.88;;;;;;;14.49;56.68;100835.34;7397389;19;20031;-65
2022/05/12 06:30:33;;;;;;;2.65;0.77;;;;;;;14.47;57.82;100831.91;7397904;19;20041;-66
2022/05/12 06:33:08;;;;;;;5.35;1.23;;;;;;;14.48;57.36;100835.38;7395942;19;20014;-65
2022/05/12 06:35:39;;;;;;;2.72;0.60;;;;;;;14.50;58.40;100841.47;7395306;19;20027;-66
2022/05/12 06:38:07;;;;;;;5.97;0.80;;;;;;;14.50;57.72;100855.53;7397043;19;20422;-68
2022/05/12 06:40:36;;;;;;;1.80;0.90;;;;;;;14.54;58.28;100868.63;7397826;19;20034;-65
2022/05/12 06:43:05;;;;;;;7.60;0.82;;;;;;;14.54;56.97;100866.00;7395674;19;20025;-64
2022/05/12 06:45:33;;;;;;;4.35;0.80;;;;;;;14.52;56.38;100865.19;7395300;19;20019;-64
2022/05/12 06:48:02;;;;;;;7.97;0.85;;;;;;;14.55;57.51;100881.78;7396044;19;20026;-64
2022/05/12 06:50:32;;;;;;;9.00;0.70;;;;;;;14.54;56.02;100885.31;7397825;19;20031;-64
2022/05/12 06:53:03;;;;;;;5.40;0.90;;;;;;;14.58;55.92;100865.81;7397474;19;20023;-65
2022/05/12 06:55:31;;;;;;;4.20;0.65;;;;;;;14.64;56.06;100883.22;7395349;19;20092;-65
2022/05/12 06:58:00;;;;;;;3.92;0.60;;;;;;;14.72;56.48;100893.53;7395246;19;20031;-65
2022/05/12 07:00:28;;;;;;;1.65;0.50;;;;;;;14.79;54.37;100892.41;7395044;19;20022;-64
2022/05/12 07:02:57;;;;;;;3.83;0.63;;;;;;;14.81;55.27;100912.56;7395251;19;20031;-65
2022/05/12 07:05:27;;;;;;;5.93;0.85;;;;;;;14.79;55.22;100905.59;7395079;19;20011;-66
2022/05/12 07:07:56;;;;;;;3.33;0.52;;;;;;;14.79;55.56;100917.00;7397410;19;20032;-67
2022/05/12 07:10:29;;;;;;;1.90;0.80;;;;;;;14.76;54.92;100911.84;7397341;19;20019;-67
2022/05/12 07:12:57;;;;;;;4.45;0.60;;;;;;;14.75;55.56;100935.69;7395340;19;20022;-68
2022/05/12 07:15:27;;;;;;;3.58;0.60;;;;;;;14.77;55.79;100969.06;7394349;19;20046;-67
2022/05/12 07:17:56;;;;;;;5.45;0.93;;;;;;;14.83;55.16;100923.06;7396785;19;20014;-67
2022/05/12 07:28:33;;;;;;;0.93;0.50;;;;;;;15.14;54.84;100954.47;7396783;19;20013;-68
2022/05/12 07:31:05;;;;;;;2.10;0.57;;;;;;;15.15;54.83;100972.06;7396924;19;20041;-66
2022/05/12 07:33:36;;;;;;;0.68;0.50;;;;;;;15.12;53.83;100964.25;7396445;19;20010;-66
2022/05/12 07:36:07;;;;;;;4.28;0.50;;;;;;;15.09;54.05;100982.88;7394690;19;20019;-66
2022/05/12 07:38:36;;;;;;;1.70;0.63;;;;;;;15.06;54.70;100967.09;7396776;19;20011;-66
2022/05/12 07:41:09;;;;;;;1.55;0.50;;;;;;;14.98;53.26;100988.53;7394259;19;20018;-66
2022/05/12 07:43:38;;;;;;;4.35;1.63;;;;;;;14.98;54.27;100969.19;7393508;19;20014;-66
2022/05/12 07:46:07;;;;;;;2.70;0.60;;;;;;;15.06;54.11;100985.59;7394661;19;20025;-66
2022/05/12 07:48:41;;;;;;;3.28;0.70;;;;;;;15.14;52.83;100988.84;7394408;19;20015;-66
2022/05/12 07:51:10;;;;;;;2.60;0.90;;;;;;;15.17;53.19;101005.50;7396483;19;20011;-66
2022/05/12 07:53:39;;;;;;;1.05;0.68;;;;;;;15.20;53.34;101006.22;7394361;19;20031;-66
2022/05/12 07:56:11;;;;;;;1.00;0.47;;;;;;;15.20;52.68;101000.94;7396465;19;20015;-67
2022/05/12 07:58:39;;;;;;;3.03;0.50;;;;;;;15.25;52.54;101011.34;7395963;19;20023;-66
2022/05/12 08:01:08;;;;;;;0.57;0.45;;;;;;;15.27;52.96;101006.88;7394797;19;20018;-65
2022/05/12 08:03:37;;;;;;;1.90;0.60;;;;;;;15.35;52.69;101009.25;7393816;19;20011;-66
2022/05/12 08:06:05;;;;;;;8.73;0.88;;;;;;;15.35;53.19;101015.38;7392624;19;20007;-66
2022/05/12 08:08:34;;;;;;;1.27;0.60;;;;;;;15.38;53.26;101025.84;7394704;19;20015;-66
2022/05/12 08:11:02;;;;;;;2.60;0.60;;;;;;;15.42;53.15;101023.97;7393311;19;20019;-66
2022/05/12 08:13:33;;;;;;;3.33;0.60;;;;;;;15.40;52.97;101037.22;7393125;19;20018;-66
2022/05/12 08:16:04;;;;;;;1.95;0.73;;;;;;;15.39;52.79;101035.53;7393252;19;20476;-66
2022/05/12 08:18:33;;;;;;;2.08;0.60;;;;;;;15.38;53.05;101032.91;7395156;19;20023;-67
2022/05/12 08:21:02;;;;;;;1.73;0.60;;;;;;;15.35;52.08;101033.88;7394730;19;20025;-65
2022/05/12 08:23:30;;;;;;;2.05;0.65;;;;;;;15.38;53.31;101049.66;7392466;19;20493;-64
2022/05/12 08:25:58;;;;;;;1.90;0.50;;;;;;;15.42;53.16;101035.38;7392841;19;20031;-65
2022/05/12 08:28:27;;;;;;;1.90;0.70;;;;;;;15.45;53.00;101056.41;7393905;19;20022;-64
2022/05/12 08:30:58;;;;;;;1.17;1.02;;;;;;;15.48;52.64;101066.91;7392460;19;20007;-66
2022/05/12 08:33:27;;;;;;;0.98;0.60;;;;;;;15.45;53.07;101071.44;7394734;19;20031;-66
2022/05/12 08:35:55;;;;;;;5.50;0.73;;;;;;;15.50;53.17;101076.56;7394509;19;20035;-65
2022/05/12 08:38:25;;;;;;;1.27;0.70;;;;;;;15.60;52.96;101096.44;7394779;19;20006;-65
2022/05/12 08:41:07;;;;;;;4.13;2.28;;;;;;;15.66;52.49;101097.97;7392472;19;20019;-64
2022/05/12 08:43:40;;;;;;;2.30;0.60;;;;;;;15.64;52.78;101084.81;7392880;19;20023;-66
2022/05/12 08:46:15;;;;;;;1.08;0.45;;;;;;;15.61;52.73;101096.38;7393758;19;20539;-64
2022/05/12 08:48:46;;;;;;;5.10;0.80;;;;;;;15.55;52.91;101090.47;7394500;19;20039;-66
2022/05/12 08:51:17;;;;;;;1.98;0.50;;;;;;;15.52;53.29;101094.09;7392228;19;20039;-65
2022/05/12 08:53:50;;;;;;;4.00;0.68;;;;;;;15.52;52.31;101102.03;7393488;19;20019;-65
2022/05/12 08:56:22;;;;;;;0.85;0.50;;;;;;;15.59;52.16;101092.06;7397455;19;20026;-64
2022/05/12 08:58:53;;;;;;;1.85;0.70;;;;;;;15.63;51.21;101110.41;7401560;19;20018;-65
2022/05/12 09:01:36;;;;;;;1.23;0.40;;;;;;;15.62;49.77;101118.41;7398284;19;20108;-66
2022/05/12 09:04:21;;;;;;;2.03;0.80;;;;;;;15.60;50.50;101114.97;7397673;19;20031;-65
2022/05/12 09:06:59;;;;;;;3.45;0.70;;;;;;;15.63;49.06;101123.66;7398226;19;20019;-65
2022/05/12 09:09:32;;;;;;;2.10;0.40;;;;;;;15.61;47.96;101128.13;7401065;19;20035;-64
2022/05/12 09:12:09;;;;;;;2.33;0.80;;;;;;;15.67;48.84;101132.34;7400156;19;20023;-65
2022/05/12 09:14:44;;;;;;;0.80;0.50;;;;;;;15.76;49.37;101141.72;7399441;19;20018;-65
2022/05/12 09:17:20;;;;;;;2.38;0.60;;;;;;;15.83;48.84;101152.94;7401344;19;20022;-64
2022/05/12 09:19:48;;;;;;;2.53;0.70;;;;;;;15.91;47.38;101124.41;7400440;19;20483;-65
2022/05/12 09:22:25;;;;;;;3.22;0.52;;;;;;;15.97;48.05;101137.41;7400469;19;20382;-65
2022/05/12 09:24:53;;;;;;;2.45;0.98;;;;;;;16.01;48.58;101144.34;7398597;19;20101;-64
2022/05/12 09:27:32;;;;;;;1.42;0.50;;;;;;;16.10;48.62;101138.69;7400313;19;20019;-67
2022/05/12 09:30:02;;;;;;;5.25;0.70;;;;;;;16.17;48.94;101149.88;7399508;19;20022;-68
2022/05/12 09:32:34;;;;;;;1.45;0.55;;;;;;;16.17;49.27;101138.44;7400301;19;20015;-64
2022/05/12 09:35:13;;;;;;;1.17;0.50;;;;;;;16.09;49.47;101139.59;7397242;19;20033;-66
2022/05/12 09:37:42;;;;;;;1.52;0.75;;;;;;;16.12;50.17;101157.13;7400674;19;20031;-64
2022/05/12 09:40:20;;;;;;;2.65;0.40;;;;;;;16.16;49.28;101129.63;7399216;19;20019;-65
2022/05/12 09:42:50;;;;;;;1.35;0.52;;;;;;;16.24;49.24;101124.06;7397470;19;20014;-64
2022/05/12 09:45:31;;;;;;;3.15;0.80;;;;;;;16.28;48.65;101138.88;7396507;19;20374;-64
2022/05/12 09:48:25;;;;;;;3.40;0.80;;;;;;;16.30;47.34;101152.91;7400012;19;20038;-64
2022/05/12 09:50:54;;;;;;;2.08;0.80;;;;;;;16.37;47.99;101153.53;7400121;19;20492;-66
2022/05/12 09:53:29;;;;;;;2.58;0.90;;;;;;;16.37;47.64;101151.75;7397662;19;20042;-65
2022/05/12 09:56:04;;;;;;;3.03;0.60;;;;;;;16.33;48.04;101147.50;7399578;19;20381;-61
2022/05/12 09:58:37;;;;;;;4.97;2.47;;;;;;;16.34;48.25;101141.28;7400735;19;20018;-65
2022/05/12 10:01:14;;;;;;;2.77;0.97;;;;;;;16.36;48.32;101139.44;7399627;19;20015;-65
2022/05/12 10:09:15;;;;;;;2.33;0.50;;;;;;;16.35;48.23;101137.72;7396255;19;20010;-66
2022/05/12 10:11:47;;;;;;;0.97;0.53;;;;;;;16.40;47.51;101126.94;7396149;19;20220;-66
2022/05/12 10:14:27;;;;;;;1.63;0.70;;;;;;;16.51;46.44;101134.47;7395555;19;20031;-66
2022/05/12 10:16:59;;;;;;;3.95;0.95;;;;;;;16.54;45.29;101135.19;7395761;19;20027;-65
2022/05/12 10:19:30;;;;;;;2.83;0.68;;;;;;;16.56;45.95;101130.69;7396818;19;20039;-64
2022/05/12 10:22:14;;;;;;;1.85;0.90;;;;;;;16.63;45.73;101133.09;7396291;19;20523;-64
2022/05/12 10:24:57;;;;;;;3.60;0.82;;;;;;;16.65;45.19;101147.13;7393729;19;20010;-66
2022/05/12 10:27:49;;;;;;;3.03;0.63;;;;;;;16.67;44.63;101147.91;7396006;19;20496;-66
2022/05/12 10:30:26;;;;;;;10.32;0.80;;;;;;;16.68;45.53;101161.13;7393819;19;20022;-65
2022/05/12 10:33:08;;;;;;;2.15;0.80;;;;;;;16.69;44.96;101144.28;7395498;19;20032;-66
2022/05/12 10:35:46;;;;;;;1.77;0.80;;;;;;;16.72;44.42;101144.16;7393053;19;20035;-69
2022/05/12 10:38:22;;;;;;;2.50;0.70;;;;;;;16.74;45.67;101144.09;7396053;19;20027;-67
2022/05/12 10:40:55;;;;;;;2.08;0.70;;;;;;;16.78;45.77;101145.69;7392846;19;20039;-65
2022/05/12 10:43:42;;;;;;;1.00;0.63;;;;;;;16.89;45.65;101142.59;7392179;19;20485;-68
2022/05/12 10:46:16;;;;;;;3.40;0.60;;;;;;;17.04;45.61;101155.25;7395627;19;20022;-63
2022/05/12 10:48:52;;;;;;;2.55;0.60;;;;;;;17.07;43.93;101163.09;7392836;19;20352;-63
2022/05/12 10:51:32;;;;;;;2.72;0.80;;;;;;;17.13;44.59;101151.34;7392844;19;20370;-65
2022/05/12 10:54:15;;;;;;;2.25;0.63;;;;;;;17.21;44.64;101151.88;7392960;19;20019;-65
2022/05/12 10:56:50;;;;;;;1.40;0.38;;;;;;;17.28;41.70;101160.44;7393252;19;20224;-63
2022/05/12 10:59:30;;;;;;;1.52;0.80;;;;;;;17.32;42.28;101142.59;7395452;19;20022;-65
2022/05/12 11:02:04;;;;;;;3.03;0.50;;;;;;;17.41;43.09;101163.41;7395873;19;20485;-65
2022/05/12 11:04:56;;;;;;;1.15;0.32;;;;;;;17.56;41.84;101148.59;6672848;19;22230420;-65
2022/05/12 11:07:33;;;;;;;11.07;1.45;;;;;;;17.72;41.53;101159.41;7395273;19;20412;-64
2022/05/12 11:10:07;;;;;;;3.42;0.60;;;;;;;17.79;40.86;101159.97;7398206;19;20018;-65
2022/05/12 11:12:43;;;;;;;1.75;0.55;;;;;;;17.86;41.27;101137.53;7397237;19;20476;-64
2022/05/12 11:15:16;;;;;;;3.58;0.80;;;;;;;17.96;41.10;101141.53;7393022;19;20019;-63
2022/05/12 11:17:49;;;;;;;1.42;0.75;;;;;;;17.98;40.63;101158.22;7395082;19;20030;-63
2022/05/12 11:20:26;;;;;;;1.95;0.60;;;;;;;18.03;40.92;101145.63;7394462;19;20480;-64
2022/05/12 11:23:12;;;;;;;4.70;0.65;;;;;;;18.00;40.52;101142.25;7391970;19;20488;-66
2022/05/12 11:25:54;;;;;;;1.60;0.60;;;;;;;18.04;40.05;101157.94;7394625;19;20018;-62
2022/05/12 11:31:21;;;;;;;2.13;0.63;;;;;;;18.19;40.28;101164.31;7394855;19;20013;-64
2022/05/12 11:33:54;;;;;;;3.83;0.70;;;;;;;18.22;40.60;101147.38;7395544;19;20022;-65
2022/05/12 11:36:23;;;;;;;1.60;0.50;;;;;;;18.29;39.85;101146.16;7394941;19;20015;-65
2022/05/12 11:38:59;;;;;;;2.30;0.70;;;;;;;18.34;40.05;101153.94;7394864;19;20039;-64
2022/05/12 11:41:42;;;;;;;3.53;0.80;;;;;;;18.34;39.68;101144.16;7395751;19;20082;-65
2022/05/12 11:44:34;;;;;;;1.90;0.60;;;;;;;18.40;39.64;101146.50;7393602;19;20509;-64
2022/05/12 11:47:31;;;;;;;4.50;0.60;;;;;;;18.52;40.06;101146.84;7395786;19;20014;-65
2022/05/12 11:50:13;;;;;;;0.90;0.60;;;;;;;18.77;39.71;101150.97;7393698;19;20356;-65
2022/05/12 11:52:50;;;;;;;1.55;0.57;;;;;;;19.04;39.76;101151.41;7394287;19;20018;-64
2022/05/12 11:55:30;;;;;;;0.73;0.20;;;;;;;19.20;37.00;101154.16;7393439;19;20420;-63
2022/05/12 11:58:03;;;;;;;1.08;0.40;;;;;;;19.30;37.08;101158.03;7394488;19;20018;-66
2022/05/12 12:01:00;;;;;;;1.88;0.43;;;;;;;19.47;36.08;101150.97;7395211;19;20478;-65
2022/05/12 12:03:57;;;;;;;7.45;1.38;;;;;;;19.67;35.87;101145.44;7393204;19;20022;-63
2022/05/12 12:06:44;;;;;;;2.05;0.40;;;;;;;19.87;35.51;101146.22;7392999;19;20014;-67